Terminal Aerodrome Forecast
Issued by NWS

Home | Current Version | Previous Version | Text Only | Print | Product List | Glossary On
Versions: 1 2 3 4 5 6 7 8 9 10 11 12 13 14 15 16 17 18 19 20 21 22 23 24 25 26 27 28 29 30 31 32 33 34 35 36 37 38 39 40 41 42 43 44 45 46 47 48 49 50
000
FTUS43 KDTX 252007 AAA
TAFYIP
TAF AMD
KYIP 252007Z 2520/2618 27018G30KT P6SM -SHSN SCT028 BKN045 OVC060
      TEMPO 2520/2523 3SM -SHSN BKN028 OVC035
     FM260100 27013G20KT P6SM SCT025 BKN040
     FM261000 23011KT P6SM SCT150 BKN250
     FM261700 22018G30KT P6SM SCT050 BKN070=

USA.gov is the U.S. government's official web portal to all federal, state and local government web resources and services.